sensor_id;sensor_type;location;lat;lon;timestamp;P1;durP1;ratioP1;P2;durP2;ratioP2
1533;SDS011;760;48.822;9.304;2023-02-15T05:05:09;13.38;;;9.55;;
1533;SDS011;760;48.822;9.304;2023-02-15T05:07:37;15.27;;;8.65;;
1533;SDS011;760;48.822;9.304;2023-02-15T05:10:03;8.80;;;7.60;;
1533;SDS011;760;48.822;9.304;2023-02-15T05:12:29;9.52;;;7.78;;
1533;SDS011;760;48.822;9.304;2023-02-15T05:14:54;12.27;;;8.60;;
1533;SDS011;760;48.822;9.304;2023-02-15T05:17:20;12.17;;;7.90;;
1533;SDS011;760;48.822;9.304;2023-02-15T05:19:46;15.50;;;8.50;;
1533;SDS011;760;48.822;9.304;2023-02-15T05:22:11;12.13;;;7.87;;
1533;SDS011;760;48.822;9.304;2023-02-15T05:24:37;12.97;;;8.50;;
1533;SDS011;760;48.822;9.304;2023-02-15T05:27:22;11.68;;;7.07;;
1533;SDS011;760;48.822;9.304;2023-02-15T05:30:07;14.57;;;8.18;;
1533;SDS011;760;48.822;9.304;2023-02-15T05:32:36;9.82;;;8.93;;
1533;SDS011;760;48.822;9.304;2023-02-15T05:35:05;12.68;;;8.23;;
1533;SDS011;760;48.822;9.304;2023-02-15T05:37:31;14.02;;;7.97;;
1533;SDS011;760;48.822;9.304;2023-02-15T05:39:57;13.07;;;9.37;;
1533;SDS011;760;48.822;9.304;2023-02-15T05:42:22;13.10;;;7.07;;
1533;SDS011;760;48.822;9.304;2023-02-15T05:44:48;13.10;;;8.43;;
1533;SDS011;760;48.822;9.304;2023-02-15T05:47:13;11.00;;;7.27;;
1533;SDS011;760;48.822;9.304;2023-02-15T05:49:39;14.97;;;7.17;;
1533;SDS011;760;48.822;9.304;2023-02-15T05:52:05;14.03;;;7.97;;
1533;SDS011;760;48.822;9.304;2023-02-15T05:54:30;14.83;;;8.80;;
1533;SDS011;760;48.822;9.304;2023-02-15T05:56:56;13.67;;;7.93;;
1533;SDS011;760;48.822;9.304;2023-02-15T05:59:22;11.87;;;8.43;;
1533;SDS011;760;48.822;9.304;2023-02-15T06:01:47;13.97;;;9.60;;
1533;SDS011;760;48.822;9.304;2023-02-15T06:04:13;11.80;;;7.83;;
1533;SDS011;760;48.822;9.304;2023-02-15T06:06:38;11.37;;;6.73;;
1533;SDS011;760;48.822;9.304;2023-02-15T06:09:04;9.93;;;7.90;;
1533;SDS011;760;48.822;9.304;2023-02-15T06:11:30;9.43;;;8.47;;
1533;SDS011;760;48.822;9.304;2023-02-15T06:13:55;9.37;;;6.80;;
1533;SDS011;760;48.822;9.304;2023-02-15T06:16:21;10.07;;;8.37;;
1533;SDS011;760;48.822;9.304;2023-02-15T06:18:47;10.98;;;8.32;;
1533;SDS011;760;48.822;9.304;2023-02-15T06:21:12;12.70;;;7.97;;
1533;SDS011;760;48.822;9.304;2023-02-15T06:23:38;9.70;;;8.80;;
1533;SDS011;760;48.822;9.304;2023-02-15T06:26:04;12.57;;;8.37;;
1533;SDS011;760;48.822;9.304;2023-02-15T06:28:30;12.67;;;7.20;;
1533;SDS011;760;48.822;9.304;2023-02-15T06:30:55;15.83;;;7.83;;
1533;SDS011;760;48.822;9.304;2023-02-15T06:33:21;12.27;;;7.20;;
1533;SDS011;760;48.822;9.304;2023-02-15T06:35:47;13.02;;;8.63;;
1533;SDS011;760;48.822;9.304;2023-02-15T06:38:12;13.83;;;9.27;;
1533;SDS011;760;48.822;9.304;2023-02-15T06:40:39;15.77;;;8.45;;
1533;SDS011;760;48.822;9.304;2023-02-15T06:43:07;14.43;;;9.95;;
1533;SDS011;760;48.822;9.304;2023-02-15T06:45:33;17.17;;;11.07;;
1533;SDS011;760;48.822;9.304;2023-02-15T06:47:59;19.40;;;8.40;;
1533;SDS011;760;48.822;9.304;2023-02-15T06:50:24;14.57;;;9.20;;
1533;SDS011;760;48.822;9.304;2023-02-15T06:52:54;12.47;;;8.50;;
1533;SDS011;760;48.822;9.304;2023-02-15T06:55:24;15.93;;;8.45;;
1533;SDS011;760;48.822;9.304;2023-02-15T06:57:50;10.50;;;8.57;;
1533;SDS011;760;48.822;9.304;2023-02-15T07:00:15;14.90;;;8.53;;
1533;SDS011;760;48.822;9.304;2023-02-15T07:02:42;9.93;;;8.88;;
1533;SDS011;760;48.822;9.304;2023-02-15T07:05:08;15.00;;;11.50;;
1533;SDS011;760;48.822;9.304;2023-02-15T07:07:34;21.37;;;11.13;;
1533;SDS011;760;48.822;9.304;2023-02-15T07:10:00;12.45;;;10.07;;
1533;SDS011;760;48.822;9.304;2023-02-15T07:12:26;12.47;;;9.10;;
1533;SDS011;760;48.822;9.304;2023-02-15T07:15:07;25.08;;;9.43;;
1533;SDS011;760;48.822;9.304;2023-02-15T07:17:37;11.68;;;8.05;;
1533;SDS011;760;48.822;9.304;2023-02-15T07:20:07;17.63;;;10.70;;
1533;SDS011;760;48.822;9.304;2023-02-15T07:22:37;18.27;;;8.95;;
1533;SDS011;760;48.822;9.304;2023-02-15T07:25:04;19.10;;;10.57;;
1533;SDS011;760;48.822;9.304;2023-02-15T07:27:30;13.75;;;9.63;;
1533;SDS011;760;48.822;9.304;2023-02-15T07:29:57;16.42;;;9.50;;
1533;SDS011;760;48.822;9.304;2023-02-15T07:32:23;12.60;;;9.03;;
1533;SDS011;760;48.822;9.304;2023-02-15T07:34:48;18.30;;;9.50;;
1533;SDS011;760;48.822;9.304;2023-02-15T07:37:14;18.63;;;11.53;;
1533;SDS011;760;48.822;9.304;2023-02-15T07:39:39;15.70;;;10.60;;
1533;SDS011;760;48.822;9.304;2023-02-15T07:42:05;15.30;;;10.43;;
1533;SDS011;760;48.822;9.304;2023-02-15T07:44:30;17.73;;;10.43;;
1533;SDS011;760;48.822;9.304;2023-02-15T07:46:56;16.67;;;11.03;;
1533;SDS011;760;48.822;9.304;2023-02-15T07:49:21;14.43;;;9.50;;
1533;SDS011;760;48.822;9.304;2023-02-15T07:51:48;18.08;;;9.40;;
1533;SDS011;760;48.822;9.304;2023-02-15T07:54:13;17.90;;;10.13;;
1533;SDS011;760;48.822;9.304;2023-02-15T07:56:39;16.27;;;10.53;;
1533;SDS011;760;48.822;9.304;2023-02-15T07:59:05;19.20;;;11.00;;
1533;SDS011;760;48.822;9.304;2023-02-15T08:01:31;17.10;;;10.53;;
1533;SDS011;760;48.822;9.304;2023-02-15T08:04:00;17.83;;;9.73;;
1533;SDS011;760;48.822;9.304;2023-02-15T08:06:27;14.45;;;11.52;;
1533;SDS011;760;48.822;9.304;2023-02-15T08:08:54;20.27;;;10.65;;
1533;SDS011;760;48.822;9.304;2023-02-15T08:11:26;17.10;;;11.17;;
1533;SDS011;760;48.822;9.304;2023-02-15T08:17:11;18.10;;;10.07;;
1533;SDS011;760;48.822;9.304;2023-02-15T08:19:31;19.02;;;9.73;;
1533;SDS011;760;48.822;9.304;2023-02-15T08:21:59;16.80;;;9.55;;
1533;SDS011;760;48.822;9.304;2023-02-15T08:24:27;16.92;;;10.27;;
1533;SDS011;760;48.822;9.304;2023-02-15T08:26:55;13.27;;;8.38;;
1533;SDS011;760;48.822;9.304;2023-02-15T08:29:28;15.30;;;9.48;;
1533;SDS011;760;48.822;9.304;2023-02-15T08:31:56;13.30;;;9.35;;
1533;SDS011;760;48.822;9.304;2023-02-15T08:34:33;15.57;;;8.25;;
1533;SDS011;760;48.822;9.304;2023-02-15T08:37:01;16.40;;;12.00;;
1533;SDS011;760;48.822;9.304;2023-02-15T08:39:27;19.55;;;11.82;;
1533;SDS011;760;48.822;9.304;2023-02-15T08:41:53;14.00;;;9.68;;
1533;SDS011;760;48.822;9.304;2023-02-15T08:44:19;15.03;;;10.17;;
1533;SDS011;760;48.822;9.304;2023-02-15T08:46:46;15.20;;;9.00;;
1533;SDS011;760;48.822;9.304;2023-02-15T08:49:14;15.73;;;9.38;;
1533;SDS011;760;48.822;9.304;2023-02-15T08:51:42;17.83;;;10.45;;
1533;SDS011;760;48.822;9.304;2023-02-15T08:54:09;11.00;;;9.90;;
1533;SDS011;760;48.822;9.304;2023-02-15T08:56:38;17.05;;;9.48;;
1533;SDS011;760;48.822;9.304;2023-02-15T08:59:05;12.63;;;8.73;;
1533;SDS011;760;48.822;9.304;2023-02-15T09:01:33;13.30;;;9.52;;
1533;SDS011;760;48.822;9.304;2023-02-15T09:04:00;12.18;;;8.65;;
1533;SDS011;760;48.822;9.304;2023-02-15T09:06:27;11.55;;;8.90;;
1533;SDS011;760;48.822;9.304;2023-02-15T09:08:53;11.95;;;8.85;;
1533;SDS011;760;48.822;9.304;2023-02-15T09:13:51;10.70;;;8.52;;
1533;SDS011;760;48.822;9.304;2023-02-15T09:16:18;12.25;;;8.80;;
1533;SDS011;760;48.822;9.304;2023-02-15T09:18:43;16.13;;;10.00;;
1533;SDS011;760;48.822;9.304;2023-02-15T09:21:13;13.77;;;8.53;;
1533;SDS011;760;48.822;9.304;2023-02-15T09:23:43;10.18;;;8.10;;
1533;SDS011;760;48.822;9.304;2023-02-15T09:26:11;10.60;;;7.65;;
1533;SDS011;760;48.822;9.304;2023-02-15T09:28:41;11.02;;;8.57;;
1533;SDS011;760;48.822;9.304;2023-02-15T09:31:14;8.52;;;7.63;;
1533;SDS011;760;48.822;9.304;2023-02-15T09:33:40;8.40;;;6.95;;
1533;SDS011;760;48.822;9.304;2023-02-15T09:36:14;11.15;;;7.53;;
1533;SDS011;760;48.822;9.304;2023-02-15T09:38:42;12.80;;;7.97;;
1533;SDS011;760;48.822;9.304;2023-02-15T09:44:06;10.10;;;8.02;;
1533;SDS011;760;48.822;9.304;2023-02-15T10:00:30;8.23;;;7.33;;
1533;SDS011;760;48.822;9.304;2023-02-15T10:05:53;8.03;;;7.20;;
1533;SDS011;760;48.822;9.304;2023-02-15T10:16:44;10.00;;;8.97;;
1533;SDS011;760;48.822;9.304;2023-02-15T10:27:47;10.40;;;8.87;;
1533;SDS011;760;48.822;9.304;2023-02-15T10:30:15;10.63;;;9.53;;
1533;SDS011;760;48.822;9.304;2023-02-15T10:35:22;13.47;;;10.43;;
1533;SDS011;760;48.822;9.304;2023-02-15T10:43:13;11.80;;;9.47;;
1533;SDS011;760;48.822;9.304;2023-02-15T10:45:56;16.60;;;11.50;;
1533;SDS011;760;48.822;9.304;2023-02-15T10:51:27;11.80;;;9.40;;
1533;SDS011;760;48.822;9.304;2023-02-15T10:54:21;12.90;;;10.27;;
1533;SDS011;760;48.822;9.304;2023-02-15T11:08:02;10.73;;;9.63;;
1533;SDS011;760;48.822;9.304;2023-02-15T11:13:18;10.53;;;9.07;;
1533;SDS011;760;48.822;9.304;2023-02-15T11:15:51;9.40;;;7.90;;
1533;SDS011;760;48.822;9.304;2023-02-15T11:21:01;13.77;;;9.87;;
1533;SDS011;760;48.822;9.304;2023-02-15T11:23:27;9.47;;;8.43;;
1533;SDS011;760;48.822;9.304;2023-02-15T11:25:58;9.73;;;8.77;;
1533;SDS011;760;48.822;9.304;2023-02-15T11:31:16;16.53;;;9.80;;
1533;SDS011;760;48.822;9.304;2023-02-15T11:33:45;12.93;;;9.70;;
1533;SDS011;760;48.822;9.304;2023-02-15T11:36:21;13.97;;;9.80;;
1533;SDS011;760;48.822;9.304;2023-02-15T11:38:52;11.10;;;8.70;;
1533;SDS011;760;48.822;9.304;2023-02-15T11:41:28;12.95;;;10.75;;
1533;SDS011;760;48.822;9.304;2023-02-15T11:46:33;11.45;;;8.85;;
1533;SDS011;760;48.822;9.304;2023-02-15T11:48:59;11.23;;;8.83;;
1533;SDS011;760;48.822;9.304;2023-02-15T11:51:25;8.53;;;7.27;;
1533;SDS011;760;48.822;9.304;2023-02-15T11:53:52;10.32;;;7.45;;
1533;SDS011;760;48.822;9.304;2023-02-15T11:56:20;13.17;;;8.03;;
1533;SDS011;760;48.822;9.304;2023-02-15T12:01:36;10.60;;;7.95;;
1533;SDS011;760;48.822;9.304;2023-02-15T12:04:10;11.27;;;8.80;;
1533;SDS011;760;48.822;9.304;2023-02-15T12:06:48;10.85;;;8.27;;
1533;SDS011;760;48.822;9.304;2023-02-15T12:12:25;13.25;;;10.50;;
1533;SDS011;760;48.822;9.304;2023-02-15T12:14:53;13.18;;;9.23;;
1533;SDS011;760;48.822;9.304;2023-02-15T12:17:20;13.55;;;9.38;;
1533;SDS011;760;48.822;9.304;2023-02-15T12:19:49;12.88;;;9.20;;
1533;SDS011;760;48.822;9.304;2023-02-15T12:22:27;10.32;;;9.05;;
1533;SDS011;760;48.822;9.304;2023-02-15T12:25:01;12.00;;;8.43;;
1533;SDS011;760;48.822;9.304;2023-02-15T12:27:30;10.38;;;9.27;;
1533;SDS011;760;48.822;9.304;2023-02-15T12:32:28;9.63;;;7.80;;
1533;SDS011;760;48.822;9.304;2023-02-15T12:35:20;12.57;;;9.75;;
1533;SDS011;760;48.822;9.304;2023-02-15T12:37:57;10.63;;;8.40;;
1533;SDS011;760;48.822;9.304;2023-02-15T12:40:31;11.60;;;8.38;;
1533;SDS011;760;48.822;9.304;2023-02-15T12:42:58;9.05;;;8.15;;
1533;SDS011;760;48.822;9.304;2023-02-15T12:45:31;9.90;;;7.07;;
1533;SDS011;760;48.822;9.304;2023-02-15T12:50:49;11.32;;;8.98;;
1533;SDS011;760;48.822;9.304;2023-02-15T12:53:16;12.00;;;8.50;;
1533;SDS011;760;48.822;9.304;2023-02-15T12:58:17;12.05;;;8.73;;
1533;SDS011;760;48.822;9.304;2023-02-15T13:00:45;13.05;;;9.18;;
1533;SDS011;760;48.822;9.304;2023-02-15T13:03:18;11.30;;;10.05;;
1533;SDS011;760;48.822;9.304;2023-02-15T13:05:48;14.27;;;10.60;;
1533;SDS011;760;48.822;9.304;2023-02-15T13:08:30;11.48;;;8.75;;
1533;SDS011;760;48.822;9.304;2023-02-15T13:11:07;12.23;;;8.55;;
1533;SDS011;760;48.822;9.304;2023-02-15T13:13:35;14.85;;;10.80;;
1533;SDS011;760;48.822;9.304;2023-02-15T13:16:26;8.75;;;7.50;;
1533;SDS011;760;48.822;9.304;2023-02-15T13:19:02;13.73;;;10.23;;
1533;SDS011;760;48.822;9.304;2023-02-15T13:21:47;11.27;;;9.73;;
1533;SDS011;760;48.822;9.304;2023-02-15T13:24:18;11.98;;;9.80;;
1533;SDS011;760;48.822;9.304;2023-02-15T13:26:48;8.90;;;7.97;;
1533;SDS011;760;48.822;9.304;2023-02-15T13:29:17;12.80;;;10.10;;
1533;SDS011;760;48.822;9.304;2023-02-15T13:31:46;9.48;;;7.57;;
1533;SDS011;760;48.822;9.304;2023-02-15T13:34:14;10.88;;;7.78;;
1533;SDS011;760;48.822;9.304;2023-02-15T13:39:46;13.35;;;9.63;;
1533;SDS011;760;48.822;9.304;2023-02-15T13:42:20;10.40;;;7.78;;
1533;SDS011;760;48.822;9.304;2023-02-15T13:53:02;9.57;;;7.65;;
1533;SDS011;760;48.822;9.304;2023-02-15T13:55:51;10.43;;;9.20;;
1533;SDS011;760;48.822;9.304;2023-02-15T14:01:09;9.85;;;8.20;;
1533;SDS011;760;48.822;9.304;2023-02-15T14:08:42;9.07;;;7.57;;
1533;SDS011;760;48.822;9.304;2023-02-15T14:14:30;10.38;;;7.75;;
1533;SDS011;760;48.822;9.304;2023-02-15T14:17:23;13.30;;;7.75;;
1533;SDS011;760;48.822;9.304;2023-02-15T14:19:54;9.68;;;8.05;;
1533;SDS011;760;48.822;9.304;2023-02-15T14:27:48;10.88;;;8.93;;
1533;SDS011;760;48.822;9.304;2023-02-15T14:30:30;8.70;;;7.75;;
1533;SDS011;760;48.822;9.304;2023-02-15T14:35:32;10.77;;;8.70;;
1533;SDS011;760;48.822;9.304;2023-02-15T14:49:22;10.73;;;8.82;;
1533;SDS011;760;48.822;9.304;2023-02-15T14:56:42;10.57;;;8.27;;
1533;SDS011;760;48.822;9.304;2023-02-15T15:01:39;9.45;;;8.30;;
1533;SDS011;760;48.822;9.304;2023-02-15T15:04:09;13.50;;;8.80;;
1533;SDS011;760;48.822;9.304;2023-02-15T15:06:56;11.50;;;10.35;;
1533;SDS011;760;48.822;9.304;2023-02-15T15:09:29;10.50;;;9.43;;
1533;SDS011;760;48.822;9.304;2023-02-15T15:14:47;10.18;;;9.07;;
1533;SDS011;760;48.822;9.304;2023-02-15T15:22:27;13.00;;;8.80;;
1533;SDS011;760;48.822;9.304;2023-02-15T15:31:06;9.40;;;8.30;;
1533;SDS011;760;48.822;9.304;2023-02-15T15:37:18;13.52;;;9.50;;
1533;SDS011;760;48.822;9.304;2023-02-15T15:42:49;10.63;;;7.88;;
1533;SDS011;760;48.822;9.304;2023-02-15T15:48:30;11.75;;;9.20;;
1533;SDS011;760;48.822;9.304;2023-02-15T15:51:06;8.75;;;7.22;;
1533;SDS011;760;48.822;9.304;2023-02-15T15:53:44;9.13;;;8.23;;
1533;SDS011;760;48.822;9.304;2023-02-15T15:56:24;14.57;;;8.32;;
1533;SDS011;760;48.822;9.304;2023-02-15T15:59:00;14.13;;;9.43;;
1533;SDS011;760;48.822;9.304;2023-02-15T16:01:30;9.70;;;7.80;;
1533;SDS011;760;48.822;9.304;2023-02-15T16:04:00;11.52;;;9.52;;
1533;SDS011;760;48.822;9.304;2023-02-15T16:06:34;12.83;;;7.90;;
1533;SDS011;760;48.822;9.304;2023-02-15T16:09:15;11.40;;;9.63;;
1533;SDS011;760;48.822;9.304;2023-02-15T16:11:44;13.93;;;10.13;;
1533;SDS011;760;48.822;9.304;2023-02-15T16:14:13;18.23;;;11.18;;
1533;SDS011;760;48.822;9.304;2023-02-15T16:16:50;11.70;;;10.50;;
1533;SDS011;760;48.822;9.304;2023-02-15T16:19:19;12.55;;;10.07;;
1533;SDS011;760;48.822;9.304;2023-02-15T16:21:49;9.80;;;8.25;;
1533;SDS011;760;48.822;9.304;2023-02-15T16:29:36;13.13;;;10.40;;
1533;SDS011;760;48.822;9.304;2023-02-15T16:32:03;10.80;;;9.70;;
1533;SDS011;760;48.822;9.304;2023-02-15T16:34:31;11.43;;;9.02;;
1533;SDS011;760;48.822;9.304;2023-02-15T16:37:16;12.60;;;9.32;;
1533;SDS011;760;48.822;9.304;2023-02-15T16:39:43;12.38;;;9.55;;
1533;SDS011;760;48.822;9.304;2023-02-15T16:42:11;16.80;;;10.05;;
1533;SDS011;760;48.822;9.304;2023-02-15T16:44:37;14.13;;;9.70;;
1533;SDS011;760;48.822;9.304;2023-02-15T16:47:05;14.85;;;10.25;;
1533;SDS011;760;48.822;9.304;2023-02-15T16:49:55;13.98;;;10.85;;
1533;SDS011;760;48.822;9.304;2023-02-15T16:52:25;17.00;;;10.10;;
1533;SDS011;760;48.822;9.304;2023-02-15T16:55:03;17.48;;;10.48;;
1533;SDS011;760;48.822;9.304;2023-02-15T16:57:37;15.45;;;10.70;;
1533;SDS011;760;48.822;9.304;2023-02-15T17:00:14;19.10;;;12.00;;
1533;SDS011;760;48.822;9.304;2023-02-15T17:02:54;20.90;;;11.77;;
1533;SDS011;760;48.822;9.304;2023-02-15T17:05:31;17.83;;;11.25;;
1533;SDS011;760;48.822;9.304;2023-02-15T17:13:23;15.68;;;10.80;;
1533;SDS011;760;48.822;9.304;2023-02-15T17:18:29;14.70;;;10.82;;
1533;SDS011;760;48.822;9.304;2023-02-15T17:20:59;14.55;;;10.60;;
1533;SDS011;760;48.822;9.304;2023-02-15T17:23:42;21.00;;;12.77;;
1533;SDS011;760;48.822;9.304;2023-02-15T17:26:19;14.00;;;10.43;;
1533;SDS011;760;48.822;9.304;2023-02-15T17:28:54;13.85;;;10.60;;
1533;SDS011;760;48.822;9.304;2023-02-15T17:31:24;21.42;;;12.23;;
1533;SDS011;760;48.822;9.304;2023-02-15T17:33:56;16.00;;;10.70;;
1533;SDS011;760;48.822;9.304;2023-02-15T17:36:24;17.23;;;12.10;;
1533;SDS011;760;48.822;9.304;2023-02-15T17:41:23;17.02;;;10.13;;
1533;SDS011;760;48.822;9.304;2023-02-15T17:43:49;20.90;;;12.27;;
1533;SDS011;760;48.822;9.304;2023-02-15T17:46:15;18.30;;;11.97;;
1533;SDS011;760;48.822;9.304;2023-02-15T17:48:44;17.50;;;13.10;;
1533;SDS011;760;48.822;9.304;2023-02-15T17:51:12;17.85;;;10.48;;
1533;SDS011;760;48.822;9.304;2023-02-15T17:53:38;14.77;;;11.35;;
1533;SDS011;760;48.822;9.304;2023-02-15T17:56:05;11.38;;;9.32;;
1533;SDS011;760;48.822;9.304;2023-02-15T17:58:37;17.70;;;11.98;;
1533;SDS011;760;48.822;9.304;2023-02-15T18:01:05;17.15;;;12.05;;
1533;SDS011;760;48.822;9.304;2023-02-15T18:03:54;12.43;;;10.13;;
1533;SDS011;760;48.822;9.304;2023-02-15T18:06:40;18.42;;;10.73;;
1533;SDS011;760;48.822;9.304;2023-02-15T18:09:26;15.25;;;11.57;;
1533;SDS011;760;48.822;9.304;2023-02-15T18:14:48;17.77;;;13.20;;
1533;SDS011;760;48.822;9.304;2023-02-15T18:17:15;20.83;;;13.65;;
1533;SDS011;760;48.822;9.304;2023-02-15T18:19:43;12.75;;;9.52;;
1533;SDS011;760;48.822;9.304;2023-02-15T18:22:10;16.15;;;11.80;;
1533;SDS011;760;48.822;9.304;2023-02-15T18:24:46;14.73;;;11.80;;
1533;SDS011;760;48.822;9.304;2023-02-15T18:27:12;13.15;;;10.75;;
1533;SDS011;760;48.822;9.304;2023-02-15T18:29:39;18.02;;;11.02;;
1533;SDS011;760;48.822;9.304;2023-02-15T18:32:19;16.17;;;12.33;;
1533;SDS011;760;48.822;9.304;2023-02-15T18:34:48;15.02;;;11.55;;
1533;SDS011;760;48.822;9.304;2023-02-15T18:37:15;17.70;;;13.30;;
1533;SDS011;760;48.822;9.304;2023-02-15T18:39:47;17.20;;;12.40;;
1533;SDS011;760;48.822;9.304;2023-02-15T18:42:24;15.10;;;11.40;;
1533;SDS011;760;48.822;9.304;2023-02-15T18:44:55;21.48;;;13.63;;
1533;SDS011;760;48.822;9.304;2023-02-15T18:47:23;14.60;;;11.65;;
1533;SDS011;760;48.822;9.304;2023-02-15T18:49:49;19.83;;;15.97;;
1533;SDS011;760;48.822;9.304;2023-02-15T18:52:19;24.07;;;16.80;;
1533;SDS011;760;48.822;9.304;2023-02-15T18:54:58;20.52;;;13.98;;
1533;SDS011;760;48.822;9.304;2023-02-15T18:57:26;19.40;;;13.90;;
1533;SDS011;760;48.822;9.304;2023-02-15T18:59:53;20.50;;;12.93;;
1533;SDS011;760;48.822;9.304;2023-02-15T19:02:18;14.23;;;11.20;;
1533;SDS011;760;48.822;9.304;2023-02-15T19:04:44;14.33;;;11.10;;
1533;SDS011;760;48.822;9.304;2023-02-15T19:07:14;13.40;;;11.27;;
1533;SDS011;760;48.822;9.304;2023-02-15T19:09:43;14.70;;;10.32;;
1533;SDS011;760;48.822;9.304;2023-02-15T19:12:11;12.05;;;10.75;;
1533;SDS011;760;48.822;9.304;2023-02-15T19:14:37;12.97;;;11.20;;
1533;SDS011;760;48.822;9.304;2023-02-15T19:17:03;13.67;;;8.67;;
1533;SDS011;760;48.822;9.304;2023-02-15T19:19:37;14.55;;;11.27;;
1533;SDS011;760;48.822;9.304;2023-02-15T19:22:03;12.73;;;10.20;;
1533;SDS011;760;48.822;9.304;2023-02-15T19:24:35;12.30;;;10.55;;
1533;SDS011;760;48.822;9.304;2023-02-15T19:27:03;12.27;;;9.55;;
1533;SDS011;760;48.822;9.304;2023-02-15T19:29:30;11.65;;;10.48;;
1533;SDS011;760;48.822;9.304;2023-02-15T19:31:56;11.20;;;9.40;;
1533;SDS011;760;48.822;9.304;2023-02-15T19:34:22;14.82;;;11.40;;
1533;SDS011;760;48.822;9.304;2023-02-15T19:36:52;15.95;;;12.35;;
1533;SDS011;760;48.822;9.304;2023-02-15T19:39:27;16.15;;;11.25;;
1533;SDS011;760;48.822;9.304;2023-02-15T19:41:56;14.38;;;9.85;;
1533;SDS011;760;48.822;9.304;2023-02-15T19:44:21;14.17;;;10.10;;
1533;SDS011;760;48.822;9.304;2023-02-15T19:46:47;18.93;;;10.47;;
1533;SDS011;760;48.822;9.304;2023-02-15T19:49:13;14.77;;;10.67;;
1533;SDS011;760;48.822;9.304;2023-02-15T19:51:38;12.50;;;9.80;;
1533;SDS011;760;48.822;9.304;2023-02-15T19:56:54;14.02;;;9.55;;
1533;SDS011;760;48.822;9.304;2023-02-15T19:59:24;10.75;;;9.18;;
1533;SDS011;760;48.822;9.304;2023-02-15T20:01:56;14.57;;;10.38;;
1533;SDS011;760;48.822;9.304;2023-02-15T20:04:22;11.93;;;9.50;;
1533;SDS011;760;48.822;9.304;2023-02-15T20:06:49;15.68;;;11.38;;
1533;SDS011;760;48.822;9.304;2023-02-15T20:09:20;10.90;;;9.43;;
1533;SDS011;760;48.822;9.304;2023-02-15T20:11:56;14.55;;;10.43;;
1533;SDS011;760;48.822;9.304;2023-02-15T20:14:22;19.20;;;10.07;;
1533;SDS011;760;48.822;9.304;2023-02-15T20:16:57;15.20;;;10.18;;
1533;SDS011;760;48.822;9.304;2023-02-15T20:19:22;22.58;;;12.07;;
1533;SDS011;760;48.822;9.304;2023-02-15T20:21:48;14.20;;;10.80;;
1533;SDS011;760;48.822;9.304;2023-02-15T20:24:19;11.68;;;10.25;;
1533;SDS011;760;48.822;9.304;2023-02-15T20:26:46;11.85;;;9.52;;
1533;SDS011;760;48.822;9.304;2023-02-15T20:29:16;10.00;;;9.00;;
1533;SDS011;760;48.822;9.304;2023-02-15T20:31:42;19.50;;;10.98;;
1533;SDS011;760;48.822;9.304;2023-02-15T20:34:09;9.88;;;8.88;;
1533;SDS011;760;48.822;9.304;2023-02-15T20:36:35;15.77;;;10.43;;
1533;SDS011;760;48.822;9.304;2023-02-15T20:39:03;11.98;;;9.27;;
1533;SDS011;760;48.822;9.304;2023-02-15T20:41:37;14.90;;;9.60;;
1533;SDS011;760;48.822;9.304;2023-02-15T20:46:44;14.63;;;8.50;;
1533;SDS011;760;48.822;9.304;2023-02-15T20:49:09;13.90;;;8.20;;
1533;SDS011;760;48.822;9.304;2023-02-15T20:51:35;12.07;;;8.90;;
1533;SDS011;760;48.822;9.304;2023-02-15T20:54:07;13.30;;;9.25;;
1533;SDS011;760;48.822;9.304;2023-02-15T20:56:41;12.93;;;9.00;;
1533;SDS011;760;48.822;9.304;2023-02-15T21:01:54;10.30;;;8.23;;
1533;SDS011;760;48.822;9.304;2023-02-15T21:04:38;13.07;;;9.13;;
1533;SDS011;760;48.822;9.304;2023-02-15T21:07:04;13.43;;;11.77;;
1533;SDS011;760;48.822;9.304;2023-02-15T21:09:30;13.00;;;8.70;;
1533;SDS011;760;48.822;9.304;2023-02-15T21:11:56;13.83;;;8.87;;
1533;SDS011;760;48.822;9.304;2023-02-15T21:14:24;16.92;;;9.82;;
1533;SDS011;760;48.822;9.304;2023-02-15T21:16:51;10.25;;;8.02;;
1533;SDS011;760;48.822;9.304;2023-02-15T21:19:18;14.95;;;9.52;;
1533;SDS011;760;48.822;9.304;2023-02-15T21:21:46;13.63;;;10.38;;
1533;SDS011;760;48.822;9.304;2023-02-15T21:26:52;10.68;;;8.40;;
1533;SDS011;760;48.822;9.304;2023-02-15T21:29:20;11.27;;;7.78;;
1533;SDS011;760;48.822;9.304;2023-02-15T21:31:49;12.75;;;8.63;;
1533;SDS011;760;48.822;9.304;2023-02-15T21:34:15;8.93;;;7.50;;
1533;SDS011;760;48.822;9.304;2023-02-15T21:36:42;10.95;;;9.25;;
1533;SDS011;760;48.822;9.304;2023-02-15T21:39:21;13.88;;;7.95;;
1533;SDS011;760;48.822;9.304;2023-02-15T21:41:49;13.73;;;10.38;;
1533;SDS011;760;48.822;9.304;2023-02-15T21:44:35;11.20;;;8.27;;
1533;SDS011;760;48.822;9.304;2023-02-15T21:47:23;11.18;;;9.25;;
1533;SDS011;760;48.822;9.304;2023-02-15T21:53:03;11.52;;;8.82;;
1533;SDS011;760;48.822;9.304;2023-02-15T21:55:31;11.70;;;8.80;;
1533;SDS011;760;48.822;9.304;2023-02-15T21:57:57;12.38;;;7.75;;
1533;SDS011;760;48.822;9.304;2023-02-15T22:00:24;10.63;;;8.27;;
1533;SDS011;760;48.822;9.304;2023-02-15T22:02:53;10.57;;;9.48;;
1533;SDS011;760;48.822;9.304;2023-02-15T22:05:22;9.35;;;8.23;;
1533;SDS011;760;48.822;9.304;2023-02-15T22:07:50;9.77;;;8.27;;
1533;SDS011;760;48.822;9.304;2023-02-15T22:10:16;7.40;;;6.80;;
1533;SDS011;760;48.822;9.304;2023-02-15T22:12:42;16.80;;;9.77;;
1533;SDS011;760;48.822;9.304;2023-02-15T22:15:16;11.80;;;7.68;;
1533;SDS011;760;48.822;9.304;2023-02-15T22:17:43;9.93;;;8.43;;
1533;SDS011;760;48.822;9.304;2023-02-15T22:20:13;16.90;;;9.32;;
1533;SDS011;760;48.822;9.304;2023-02-15T22:22:41;9.48;;;8.48;;
1533;SDS011;760;48.822;9.304;2023-02-15T22:25:07;9.63;;;8.03;;
1533;SDS011;760;48.822;9.304;2023-02-15T22:27:34;14.52;;;7.68;;
1533;SDS011;760;48.822;9.304;2023-02-15T22:30:03;9.70;;;8.70;;
1533;SDS011;760;48.822;9.304;2023-02-15T22:32:39;11.15;;;8.20;;
1533;SDS011;760;48.822;9.304;2023-02-15T22:35:05;11.07;;;8.83;;
1533;SDS011;760;48.822;9.304;2023-02-15T22:37:35;11.57;;;8.88;;
1533;SDS011;760;48.822;9.304;2023-02-15T22:40:01;10.53;;;9.43;;
1533;SDS011;760;48.822;9.304;2023-02-15T22:42:26;9.37;;;8.33;;
1533;SDS011;760;48.822;9.304;2023-02-15T22:44:53;10.40;;;9.17;;
1533;SDS011;760;48.822;9.304;2023-02-15T22:47:21;12.25;;;8.77;;
1533;SDS011;760;48.822;9.304;2023-02-15T22:49:49;10.50;;;8.98;;
1533;SDS011;760;48.822;9.304;2023-02-15T22:52:15;12.40;;;9.20;;
1533;SDS011;760;48.822;9.304;2023-02-15T22:54:41;13.30;;;9.43;;
1533;SDS011;760;48.822;9.304;2023-02-15T22:57:22;14.03;;;8.47;;
1533;SDS011;760;48.822;9.304;2023-02-15T22:59:54;11.02;;;7.68;;
